Time;durP1;ratioP1;P1;durP2;ratioP2;P2;SDS_P1;SDS_P2;PMS_P1;PMS_P2;Temp;Humidity;BMP_temperature;BMP_pressure;BME280_temperature;BME280_humidity;BME280_pressure;Samples;Min_cycle;Max_cycle;Signal;HPM_P1;HPM_P2
2023/04/22 00:02:15;;;;;;;3.43;2.47;;;11.80;99.90;;;;;;5049778;28;20237;-82
2023/04/22 00:04:44;;;;;;;4.03;3.43;;;11.80;99.90;;;;;;5052426;28;20287;-81
2023/04/22 00:07:11;;;;;;;3.70;3.27;;;11.70;99.90;;;;;;5049702;28;20189;-80
2023/04/22 00:09:37;;;;;;;3.47;2.53;;;11.70;99.90;;;;;;5052873;28;20284;-81
2023/04/22 00:12:03;;;;;;;6.23;3.63;;;11.70;99.90;;;;;;5050099;28;20221;-81
2023/04/22 00:14:29;;;;;;;3.53;2.57;;;11.70;99.90;;;;;;5052211;28;20233;-80
2023/04/22 00:16:55;;;;;;;4.77;3.63;;;11.60;99.90;;;;;;5052897;27;20217;-80
2023/04/22 00:19:21;;;;;;;5.63;2.87;;;11.70;99.90;;;;;;5051273;28;20236;-83
2023/04/22 00:21:47;;;;;;;4.87;3.73;;;11.80;99.90;;;;;;5051594;28;20194;-80
2023/04/22 00:24:12;;;;;;;4.00;3.50;;;11.70;99.90;;;;;;5048860;28;20557;-80
2023/04/22 00:26:38;;;;;;;3.30;2.90;;;11.70;99.90;;;;;;5051651;27;21124;-80
2023/04/22 00:29:04;;;;;;;6.97;4.17;;;11.70;99.90;;;;;;5048757;28;20214;-80
2023/04/22 00:31:30;;;;;;;5.40;3.27;;;11.70;99.90;;;;;;5047736;28;20320;-83
2023/04/22 00:33:55;;;;;;;3.97;3.47;;;11.60;99.90;;;;;;5050572;28;20193;-80
2023/04/22 00:36:21;;;;;;;5.10;3.40;;;11.60;99.90;;;;;;5042606;28;20223;-82
2023/04/22 00:38:50;;;;;;;3.40;2.83;;;11.50;99.90;;;;;;5051795;28;20229;-82
2023/04/22 00:41:16;;;;;;;2.57;2.30;;;11.30;99.90;;;;;;5049343;28;21063;-80
2023/04/22 00:43:42;;;;;;;4.60;2.87;;;11.10;99.90;;;;;;5059366;28;20214;-82
2023/04/22 00:46:08;;;;;;;4.60;3.00;;;10.90;99.90;;;;;;5056940;28;20654;-81
2023/04/22 00:48:36;;;;;;;3.77;2.90;;;10.60;99.90;;;;;;5054687;28;20262;-80
2023/04/22 00:51:02;;;;;;;2.67;2.40;;;10.60;99.90;;;;;;5055210;27;20244;-81
2023/04/22 00:53:28;;;;;;;4.40;3.97;;;10.60;99.90;;;;;;5054599;27;21145;-82
2023/04/22 00:55:54;;;;;;;6.97;3.50;;;10.60;99.90;;;;;;5045669;28;20238;-80
2023/04/22 00:58:21;;;;;;;3.93;2.77;;;10.60;99.90;;;;;;5056521;27;20321;-83
2023/04/22 01:00:47;;;;;;;6.60;3.20;;;10.50;99.90;;;;;;5058125;28;20261;-81
2023/04/22 01:03:14;;;;;;;4.07;3.77;;;10.50;99.90;;;;;;5055492;27;20247;-80
2023/04/22 01:05:41;;;;;;;3.33;3.00;;;10.40;99.90;;;;;;5045321;28;20334;-81
2023/04/22 01:08:06;;;;;;;5.10;3.50;;;10.20;99.90;;;;;;5071814;27;20229;-81
2023/04/22 01:10:32;;;;;;;5.97;2.90;;;10.10;99.90;;;;;;5056907;28;20224;-81
2023/04/22 01:12:58;;;;;;;2.20;2.00;;;9.90;99.90;;;;;;5054881;28;20202;-82
2023/04/22 01:15:24;;;;;;;2.93;2.43;;;9.70;99.90;;;;;;5056861;28;20193;-81
2023/04/22 01:17:52;;;;;;;3.37;3.07;;;9.50;99.90;;;;;;5053565;28;20351;-81
2023/04/22 01:20:18;;;;;;;4.73;3.60;;;9.40;99.90;;;;;;5072143;28;20624;-82
2023/04/22 01:22:45;;;;;;;2.87;2.67;;;9.50;99.90;;;;;;5045593;28;20229;-81
2023/04/22 01:25:11;;;;;;;4.60;3.90;;;9.70;99.90;;;;;;5053218;28;20558;-79
2023/04/22 01:27:38;;;;;;;4.00;3.63;;;9.80;99.90;;;;;;5054861;28;20201;-84
2023/04/22 01:30:06;;;;;;;3.30;3.00;;;9.80;99.90;;;;;;5053737;28;20218;-80
2023/04/22 01:32:32;;;;;;;3.97;2.57;;;9.60;99.90;;;;;;5053904;28;20217;-80
2023/04/22 01:34:58;;;;;;;2.93;2.13;;;9.20;99.90;;;;;;5054207;28;20221;-79
2023/04/22 01:37:24;;;;;;;3.17;2.87;;;9.10;99.90;;;;;;5045372;28;20278;-82
2023/04/22 01:39:50;;;;;;;3.60;2.43;;;9.00;99.90;;;;;;5055653;28;20217;-80
2023/04/22 01:42:16;;;;;;;25.50;2.50;;;8.70;99.90;;;;;;5053221;28;20235;-82
2023/04/22 01:44:42;;;;;;;18.10;2.57;;;8.40;99.90;;;;;;5053683;27;20222;-79
2023/04/22 01:47:07;;;;;;;1.53;1.30;;;8.30;99.90;;;;;;5053962;27;20559;-79
2023/04/22 01:49:33;;;;;;;8.10;2.03;;;8.20;99.90;;;;;;5054317;27;20232;-80
2023/04/22 01:51:59;;;;;;;3.50;2.03;;;8.30;99.90;;;;;;5052293;28;20194;-81
2023/04/22 01:54:25;;;;;;;1.87;1.77;;;8.30;99.90;;;;;;5053907;28;20193;-80
2023/04/22 01:56:52;;;;;;;2.10;2.00;;;8.40;99.90;;;;;;5051042;28;20229;-80
2023/04/22 01:59:19;;;;;;;7.17;3.47;;;8.50;99.90;;;;;;5053722;28;20225;-80
2023/04/22 02:01:45;;;;;;;4.07;3.67;;;8.60;99.90;;;;;;5052382;28;20238;-82
2023/04/22 02:04:11;;;;;;;2.67;2.47;;;8.60;99.90;;;;;;5044252;28;20559;-80
2023/04/22 02:06:37;;;;;;;3.80;3.50;;;8.70;99.90;;;;;;5053497;28;20186;-80
2023/04/22 02:09:03;;;;;;;6.83;3.57;;;8.80;99.90;;;;;;5055591;28;20590;-80
2023/04/22 02:11:29;;;;;;;3.37;2.90;;;8.90;99.90;;;;;;5049546;28;20360;-81
2023/04/22 02:13:55;;;;;;;5.13;3.70;;;8.80;99.90;;;;;;5046816;28;20625;-80
2023/04/22 02:16:21;;;;;;;3.17;2.87;;;8.70;99.90;;;;;;5051834;28;20225;-80
2023/04/22 02:18:46;;;;;;;6.10;4.00;;;8.50;99.90;;;;;;5052074;28;20189;-79
2023/04/22 02:21:12;;;;;;;4.57;3.23;;;8.40;99.90;;;;;;5051654;28;20699;-82
2023/04/22 02:23:38;;;;;;;5.80;3.33;;;8.40;99.90;;;;;;5054090;28;20259;-80
2023/04/22 02:26:04;;;;;;;4.57;2.77;;;8.40;99.90;;;;;;5053067;27;20225;-80
2023/04/22 02:28:33;;;;;;;4.03;3.33;;;8.30;99.90;;;;;;5069295;27;20235;-80
2023/04/22 02:31:00;;;;;;;4.70;3.23;;;8.40;99.90;;;;;;5052132;28;20211;-79
2023/04/22 02:33:26;;;;;;;3.00;2.67;;;8.60;99.90;;;;;;5049472;28;20182;-79
2023/04/22 02:35:51;;;;;;;3.37;2.87;;;8.70;99.90;;;;;;5052489;27;20652;-82
2023/04/22 02:38:18;;;;;;;4.90;2.60;;;8.70;99.90;;;;;;5042903;28;20209;-79
2023/04/22 02:40:44;;;;;;;3.23;2.53;;;8.50;99.90;;;;;;5048657;28;20315;-81
2023/04/22 02:43:10;;;;;;;4.70;3.23;;;8.50;99.90;;;;;;5051557;28;20304;-82
2023/04/22 02:45:35;;;;;;;9.20;2.80;;;8.60;99.90;;;;;;5043464;28;20267;-82
2023/04/22 02:48:01;;;;;;;8.47;2.17;;;8.10;99.90;;;;;;5052994;27;20286;-82
2023/04/22 02:50:27;;;;;;;8.43;2.67;;;8.10;99.90;;;;;;5060592;28;20308;-81
2023/04/22 02:52:52;;;;;;;63.50;3.70;;;8.00;99.90;;;;;;5053546;28;20233;-81
2023/04/22 02:55:18;;;;;;;12.30;3.37;;;7.90;99.90;;;;;;5053938;28;20267;-81
2023/04/22 02:57:44;;;;;;;8.30;2.00;;;8.00;99.90;;;;;;5054396;28;20178;-82
2023/04/22 03:00:10;;;;;;;9.50;1.90;;;8.00;99.90;;;;;;5050546;28;20228;-85
2023/04/22 03:02:37;;;;;;;2.67;2.47;;;8.00;99.90;;;;;;5053212;28;20229;-81
2023/04/22 03:05:03;;;;;;;27.20;3.33;;;8.00;99.90;;;;;;5053704;28;20874;-80
2023/04/22 03:07:28;;;;;;;16.90;4.70;;;7.80;99.90;;;;;;5054919;27;20222;-82
2023/04/22 03:09:54;;;;;;;3.70;3.23;;;7.70;99.90;;;;;;5051214;28;20246;-81
2023/04/22 03:12:20;;;;;;;42.30;3.07;;;7.90;99.90;;;;;;5052119;27;20826;-81
2023/04/22 03:14:46;;;;;;;4.97;2.67;;;7.90;99.90;;;;;;5051313;27;20232;-81
2023/04/22 03:17:12;;;;;;;2.60;2.20;;;7.90;99.90;;;;;;5049884;28;20213;-81
2023/04/22 03:19:38;;;;;;;7.67;1.77;;;8.10;99.90;;;;;;5052048;28;20720;-82
2023/04/22 03:22:03;;;;;;;6.63;2.47;;;8.10;99.90;;;;;;5050590;27;20197;-81
2023/04/22 03:24:29;;;;;;;4.27;2.20;;;7.80;99.90;;;;;;5052240;28;21131;-81
2023/04/22 03:26:55;;;;;;;5.93;2.57;;;7.50;99.90;;;;;;5030798;28;20229;-79
2023/04/22 03:29:21;;;;;;;3.67;2.70;;;7.50;99.90;;;;;;5052847;27;20775;-80
2023/04/22 03:31:46;;;;;;;3.47;2.23;;;7.70;99.90;;;;;;5051209;27;20758;-80
2023/04/22 03:34:12;;;;;;;3.97;2.80;;;8.10;99.90;;;;;;5052759;27;20272;-80
2023/04/22 03:36:38;;;;;;;3.47;2.70;;;8.30;99.90;;;;;;5050765;28;20204;-81
2023/04/22 03:39:04;;;;;;;6.30;2.63;;;8.50;99.90;;;;;;5053902;27;20472;-80
2023/04/22 03:41:32;;;;;;;5.57;2.97;;;8.60;99.90;;;;;;5049348;28;20273;-81
2023/04/22 03:43:58;;;;;;;4.07;2.80;;;8.60;99.90;;;;;;5051680;28;20229;-80
2023/04/22 03:46:24;;;;;;;5.87;3.50;;;8.60;99.90;;;;;;5047288;28;20310;-80
2023/04/22 03:48:50;;;;;;;3.27;3.07;;;8.60;99.90;;;;;;5046776;28;20185;-80
2023/04/22 03:51:15;;;;;;;4.37;3.93;;;8.50;99.90;;;;;;5048436;28;20225;-80
2023/04/22 03:53:41;;;;;;;3.97;2.83;;;8.50;99.90;;;;;;5058274;28;20328;-80
2023/04/22 03:56:07;;;;;;;3.03;2.37;;;8.50;99.90;;;;;;5051039;28;20221;-82
2023/04/22 03:58:33;;;;;;;4.90;4.00;;;8.50;99.90;;;;;;5051647;28;20230;-80
2023/04/22 04:00:58;;;;;;;4.63;2.63;;;8.50;99.90;;;;;;5047117;28;20241;-81
2023/04/22 04:03:25;;;;;;;3.83;2.67;;;8.40;99.90;;;;;;5047536;28;20228;-81
2023/04/22 04:05:51;;;;;;;3.43;2.60;;;8.30;99.90;;;;;;5049606;28;20633;-80
2023/04/22 04:08:16;;;;;;;2.77;2.53;;;8.20;99.90;;;;;;5051524;27;20304;-81
2023/04/22 04:10:42;;;;;;;4.57;3.43;;;8.20;99.90;;;;;;5047597;28;20298;-80
2023/04/22 04:13:08;;;;;;;6.30;3.57;;;8.20;99.90;;;;;;5047142;28;20222;-81
2023/04/22 04:15:35;;;;;;;5.90;2.80;;;8.20;99.90;;;;;;5047938;28;20190;-80
2023/04/22 04:18:02;;;;;;;2.57;2.37;;;8.20;99.90;;;;;;5050864;28;20249;-79
2023/04/22 04:20:28;;;;;;;3.43;3.00;;;8.10;99.90;;;;;;5052380;28;20232;-79
2023/04/22 04:22:55;;;;;;;22.80;2.70;;;8.10;99.90;;;;;;5051684;28;20237;-81
2023/04/22 04:25:21;;;;;;;22.30;2.70;;;7.90;99.90;;;;;;5053140;28;20236;-80
2023/04/22 04:27:46;;;;;;;6.83;3.27;;;7.80;99.90;;;;;;5055377;28;20751;-81
2023/04/22 04:30:13;;;;;;;24.70;2.80;;;7.50;99.90;;;;;;5051588;28;20218;-81
2023/04/22 04:32:39;;;;;;;12.23;1.30;;;7.10;99.90;;;;;;5052775;28;20218;-80
2023/04/22 04:35:05;;;;;;;0.80;0.80;;;6.90;99.90;;;;;;5051672;28;20224;-81
2023/04/22 04:37:31;;;;;;;11.47;1.27;;;6.90;99.90;;;;;;5052820;27;20232;-79
2023/04/22 04:40:00;;;;;;;1.30;1.20;;;6.80;99.90;;;;;;5053977;28;20213;-79
2023/04/22 04:42:26;;;;;;;2.47;2.00;;;6.80;99.90;;;;;;5050729;28;20218;-80
2023/04/22 04:44:52;;;;;;;2.30;2.13;;;6.90;99.90;;;;;;5051252;28;20218;-81
2023/04/22 04:47:18;;;;;;;3.40;3.10;;;7.10;99.90;;;;;;5054086;28;20573;-81
2023/04/22 04:49:45;;;;;;;2.53;2.33;;;7.30;99.90;;;;;;5054821;28;20313;-80
2023/04/22 04:52:10;;;;;;;3.83;3.43;;;7.50;99.90;;;;;;5052950;28;20281;-81
2023/04/22 04:54:36;;;;;;;3.90;3.30;;;7.80;99.90;;;;;;5052596;28;20201;-79
2023/04/22 04:57:05;;;;;;;4.67;3.23;;;8.00;99.90;;;;;;5052612;28;20260;-80
2023/04/22 04:59:30;;;;;;;4.87;3.67;;;8.10;99.90;;;;;;5052782;28;20256;-80
2023/04/22 05:01:56;;;;;;;3.77;3.30;;;8.40;99.90;;;;;;5052802;28;20327;-81
2023/04/22 05:04:22;;;;;;;2.77;2.50;;;8.50;99.90;;;;;;5051752;28;20991;-80
2023/04/22 05:06:47;;;;;;;6.43;4.10;;;8.70;99.90;;;;;;5053885;28;20194;-80
2023/04/22 05:09:13;;;;;;;3.07;2.77;;;8.80;99.90;;;;;;5052011;28;20228;-82
2023/04/22 05:11:39;;;;;;;4.43;3.80;;;8.80;99.90;;;;;;5052728;28;20251;-80
2023/04/22 05:14:05;;;;;;;3.83;3.47;;;8.80;99.90;;;;;;5050508;28;20222;-80
2023/04/22 05:16:31;;;;;;;3.27;2.80;;;8.90;99.90;;;;;;5050253;27;20218;-82
2023/04/22 05:18:56;;;;;;;6.67;4.20;;;9.50;99.90;;;;;;5049963;28;20194;-81
2023/04/22 05:21:22;;;;;;;5.57;3.77;;;11.10;99.90;;;;;;5052708;28;20594;-82
2023/04/22 05:23:48;;;;;;;4.97;4.20;;;12.40;99.90;;;;;;5056100;28;20248;-81
2023/04/22 05:26:14;;;;;;;5.60;3.73;;;13.40;99.90;;;;;;5043107;28;20287;-82
2023/04/22 05:28:39;;;;;;;5.67;4.93;;;13.80;99.90;;;;;;5052505;27;20224;-81
2023/04/22 05:31:05;;;;;;;6.37;5.00;;;13.90;99.90;;;;;;5036857;27;20220;-82
2023/04/22 05:33:31;;;;;;;6.77;4.40;;;14.10;99.90;;;;;;5052141;28;20186;-82
2023/04/22 05:35:57;;;;;;;10.33;4.87;;;14.30;99.90;;;;;;5052208;28;20252;-82
2023/04/22 05:38:23;;;;;;;7.43;6.13;;;14.80;99.90;;;;;;5053955;28;20209;-81
2023/04/22 05:40:48;;;;;;;8.63;5.77;;;16.10;99.90;;;;;;5055186;28;20233;-81
2023/04/22 05:43:15;;;;;;;14.03;6.70;;;17.20;99.90;;;;;;5052456;27;20186;-81
2023/04/22 05:45:40;;;;;;;8.47;7.30;;;18.90;99.90;;;;;;5053140;28;20189;-82
2023/04/22 05:48:06;;;;;;;12.00;7.87;;;20.90;99.90;;;;;;5051126;27;20224;-81
2023/04/22 05:50:32;;;;;;;7.67;5.60;;;22.10;99.90;;;;;;5052994;28;20236;-82
2023/04/22 05:52:57;;;;;;;7.73;5.87;;;23.10;99.90;;;;;;5050043;28;20629;-83
2023/04/22 05:55:23;;;;;;;7.37;4.10;;;24.10;99.90;;;;;;5048993;28;20304;-83
2023/04/22 05:57:50;;;;;;;4.90;3.80;;;24.90;99.90;;;;;;5034521;28;20320;-82
2023/04/22 06:00:16;;;;;;;9.40;4.50;;;25.20;99.90;;;;;;5048382;28;20233;-82
2023/04/22 06:02:42;;;;;;;5.20;3.97;;;25.10;99.90;;;;;;5051740;27;20268;-81
2023/04/22 06:05:08;;;;;;;5.53;3.40;;;25.60;99.90;;;;;;5049491;28;21161;-81
2023/04/22 06:07:34;;;;;;;6.37;3.37;;;24.50;99.90;;;;;;5050123;27;20224;-81
2023/04/22 06:10:00;;;;;;;5.80;4.40;;;23.00;99.90;;;;;;5049320;27;20194;-81
2023/04/22 06:12:26;;;;;;;4.77;3.73;;;22.80;99.90;;;;;;5047853;28;20182;-81
2023/04/22 06:14:51;;;;;;;5.70;4.27;;;22.50;99.90;;;;;;5049020;28;20222;-82
2023/04/22 06:17:17;;;;;;;4.87;4.43;;;21.70;99.90;;;;;;5050927;28;20217;-81
2023/04/22 06:19:43;;;;;;;5.17;4.67;;;21.20;99.90;;;;;;5048727;28;20217;-81
2023/04/22 06:22:08;;;;;;;5.83;4.60;;;20.40;99.90;;;;;;5048160;27;20182;-82
2023/04/22 06:24:34;;;;;;;4.20;3.70;;;21.20;99.90;;;;;;5042347;28;20192;-81
2023/04/22 06:27:01;;;;;;;6.80;4.73;;;21.70;99.90;;;;;;5048808;28;20749;-81
2023/04/22 06:29:26;;;;;;;6.20;4.07;;;20.70;99.90;;;;;;5047375;28;20745;-81
2023/04/22 06:31:53;;;;;;;6.60;3.83;;;20.30;99.90;;;;;;5048595;28;20226;-82
2023/04/22 06:34:19;;;;;;;5.53;4.03;;;19.50;99.90;;;;;;5046926;28;20337;-81
2023/04/22 06:36:45;;;;;;;5.23;3.50;;;19.20;99.90;;;;;;5049503;28;21161;-82
2023/04/22 06:39:10;;;;;;;4.37;3.43;;;19.50;99.90;;;;;;5049202;27;20742;-81
2023/04/22 06:41:36;;;;;;;5.33;4.23;;;19.50;99.90;;;;;;5047894;27;20288;-81
2023/04/22 06:44:02;;;;;;;6.40;4.80;;;19.90;99.90;;;;;;5050011;28;20593;-81
2023/04/22 06:46:28;;;;;;;4.27;3.83;;;19.40;99.90;;;;;;5048406;27;20229;-81
2023/04/22 06:48:53;;;;;;;3.57;3.27;;;20.10;99.90;;;;;;5051097;28;21026;-81
2023/04/22 06:51:19;;;;;;;4.63;3.77;;;18.90;99.90;;;;;;5050535;28;20256;-81
2023/04/22 06:53:45;;;;;;;4.70;3.77;;;18.90;99.90;;;;;;5046046;28;21160;-82
2023/04/22 06:56:11;;;;;;;5.03;3.70;;;19.20;99.90;;;;;;5047570;28;20589;-81
2023/04/22 06:58:37;;;;;;;5.07;3.77;;;21.00;99.90;;;;;;5049783;28;20282;-82
2023/04/22 07:01:02;;;;;;;7.37;4.07;;;20.80;99.90;;;;;;5053333;27;20244;-81
2023/04/22 07:03:28;;;;;;;5.63;4.30;;;21.40;99.90;;;;;;5048596;28;20198;-83
2023/04/22 07:05:54;;;;;;;5.67;4.37;;;22.10;99.90;;;;;;5047027;28;21004;-82
2023/04/22 07:08:20;;;;;;;6.30;4.27;;;21.10;99.90;;;;;;5040294;28;20835;-83
2023/04/22 07:10:45;;;;;;;5.60;4.43;;;20.90;99.90;;;;;;5046794;28;20287;-82
2023/04/22 07:13:11;;;;;;;6.57;4.40;;;19.60;99.90;;;;;;5052451;27;20280;-81
2023/04/22 07:15:37;;;;;;;5.70;4.20;;;19.90;99.90;;;;;;5052230;28;20557;-82
2023/04/22 07:18:03;;;;;;;5.73;3.87;;;21.50;99.90;;;;;;5046578;27;20240;-82
2023/04/22 07:20:28;;;;;;;4.77;4.27;;;23.50;99.90;;;;;;5049459;27;20229;-81
2023/04/22 07:22:54;;;;;;;6.30;4.23;;;22.30;99.90;;;;;;5048934;28;20840;-82
2023/04/22 07:25:20;;;;;;;24.57;4.73;;;20.00;99.90;;;;;;5039890;27;20809;-81
2023/04/22 07:27:46;;;;;;;6.47;4.97;;;18.20;99.90;;;;;;5048549;28;20626;-80
2023/04/22 07:30:12;;;;;;;5.27;4.33;;;16.70;99.90;;;;;;5049103;28;20226;-81
2023/04/22 07:32:38;;;;;;;5.90;4.33;;;15.70;99.90;;;;;;5048766;28;20679;-81
2023/04/22 07:35:04;;;;;;;7.80;4.27;;;15.00;99.90;;;;;;5051072;28;20255;-83
2023/04/22 07:37:30;;;;;;;5.87;4.57;;;14.60;99.90;;;;;;5050717;27;20630;-80
2023/04/22 07:39:56;;;;;;;7.20;4.53;;;14.20;99.90;;;;;;5048213;28;20340;-82
2023/04/22 07:42:22;;;;;;;6.90;4.33;;;14.30;99.90;;;;;;5051215;27;20221;-82
2023/04/22 07:44:47;;;;;;;6.40;4.80;;;14.20;99.90;;;;;;5050055;27;20482;-81
2023/04/22 07:47:13;;;;;;;7.77;4.03;;;14.40;99.90;;;;;;5051127;28;20222;-81
2023/04/22 07:49:39;;;;;;;5.57;4.57;;;14.50;99.90;;;;;;5050177;28;20981;-81
2023/04/22 07:52:05;;;;;;;6.70;3.83;;;14.60;99.90;;;;;;5042807;28;20189;-81
2023/04/22 07:54:31;;;;;;;4.47;3.50;;;14.40;99.90;;;;;;5051194;28;20660;-81
2023/04/22 07:56:57;;;;;;;7.27;4.27;;;14.60;99.90;;;;;;5050680;28;20229;-82
2023/04/22 07:59:23;;;;;;;6.63;4.80;;;14.80;99.90;;;;;;5050969;28;20225;-84
2023/04/22 08:01:50;;;;;;;8.10;4.80;;;14.80;99.90;;;;;;5051314;28;20224;-81
2023/04/22 08:04:16;;;;;;;7.13;4.60;;;14.80;99.90;;;;;;5050928;27;20189;-81
2023/04/22 08:06:42;;;;;;;6.70;5.43;;;14.90;99.90;;;;;;5051713;28;20280;-81
2023/04/22 08:09:09;;;;;;;7.50;4.97;;;14.70;99.90;;;;;;5050417;28;20878;-81
2023/04/22 08:11:35;;;;;;;6.30;3.93;;;14.90;99.90;;;;;;5051468;27;20712;-83
2023/04/22 08:14:00;;;;;;;5.87;4.00;;;15.20;99.90;;;;;;5051844;27;20225;-82
2023/04/22 08:16:26;;;;;;;8.60;4.60;;;15.10;99.90;;;;;;5054429;28;20217;-83
2023/04/22 08:18:52;;;;;;;6.87;4.80;;;14.80;99.90;;;;;;5053319;28;21097;-81
2023/04/22 08:21:18;;;;;;;6.60;4.17;;;15.00;99.90;;;;;;5051783;28;20657;-83
2023/04/22 08:23:43;;;;;;;9.13;4.93;;;15.10;99.90;;;;;;5042482;28;20221;-81
2023/04/22 08:26:13;;;;;;;5.90;4.30;;;15.00;99.90;;;;;;5051991;28;20300;-81
2023/04/22 08:28:40;;;;;;;8.00;5.23;;;15.00;99.90;;;;;;5052295;28;20252;-82
2023/04/22 08:31:08;;;;;;;6.80;4.50;;;15.30;99.90;;;;;;5050680;28;20197;-83
2023/04/22 08:33:33;;;;;;;6.47;4.47;;;15.60;99.90;;;;;;5043750;28;20189;-81
2023/04/22 08:35:59;;;;;;;8.80;4.90;;;15.80;99.90;;;;;;5049328;28;20222;-83
2023/04/22 08:38:25;;;;;;;7.10;4.57;;;16.40;99.90;;;;;;5043264;28;20332;-81
2023/04/22 08:40:57;;;;;;;6.17;5.17;;;18.00;99.90;;;;;;5049033;28;20230;-81
2023/04/22 08:43:25;;;;;;;6.57;4.33;;;18.50;99.90;;;;;;5081286;28;20856;-84
2023/04/22 08:45:54;;;;;;;6.00;5.30;;;18.60;99.90;;;;;;5050187;28;20193;-82
2023/04/22 08:48:20;;;;;;;6.87;4.77;;;18.80;99.90;;;;;;5052481;28;20218;-82
2023/04/22 08:50:47;;;;;;;6.97;4.87;;;19.30;99.90;;;;;;5051463;28;20437;-82
2023/04/22 08:53:13;;;;;;;8.50;5.80;;;19.90;99.90;;;;;;5052426;28;20233;-82
2023/04/22 08:55:41;;;;;;;8.43;5.90;;;21.60;99.90;;;;;;5050369;28;20255;-82
2023/04/22 08:58:09;;;;;;;6.47;5.60;;;21.10;99.90;;;;;;5049165;27;20634;-85
2023/04/22 09:00:35;;;;;;;8.63;5.70;;;21.10;99.90;;;;;;5050473;28;20789;-81
2023/04/22 09:03:04;;;;;;;10.23;5.93;;;22.50;99.90;;;;;;5050676;28;20234;-82
2023/04/22 09:05:33;;;;;;;7.87;5.53;;;22.70;99.90;;;;;;5052314;28;20310;-83
2023/04/22 09:07:58;;;;;;;6.77;5.17;;;22.40;99.90;;;;;;5055139;27;20248;-83
2023/04/22 09:10:25;;;;;;;7.90;5.40;;;20.80;99.90;;;;;;5050866;28;20253;-82
2023/04/22 09:12:51;;;;;;;7.83;5.60;;;21.40;99.90;;;;;;5059798;28;20716;-83
2023/04/22 09:15:17;;;;;;;7.13;5.27;;;21.10;99.90;;;;;;5047979;28;20259;-83
2023/04/22 09:17:42;;;;;;;7.67;4.97;;;19.50;99.90;;;;;;5041662;28;20213;-85
2023/04/22 09:20:09;;;;;;;6.37;4.87;;;18.70;99.90;;;;;;5049778;28;20233;-84
2023/04/22 09:22:45;;;;;;;7.50;6.27;;;18.20;99.90;;;;;;5050272;28;20225;-84
2023/04/22 09:25:25;;;;;;;5.40;4.80;;;18.50;99.90;;;;;;5049669;27;20189;-81
2023/04/22 09:27:56;;;;;;;7.50;5.70;;;18.20;99.90;;;;;;5048352;28;20189;-82
2023/04/22 09:30:27;;;;;;;6.67;4.87;;;18.80;99.90;;;;;;5049522;28;20249;-83
2023/04/22 09:32:58;;;;;;;9.57;5.97;;;18.50;99.90;;;;;;5050358;28;20228;-82
2023/04/22 09:35:39;;;;;;;6.20;4.83;;;18.60;99.90;;;;;;5046253;28;20213;-82
2023/04/22 09:38:07;;;;;;;7.80;5.50;;;18.10;99.90;;;;;;5044682;28;20251;-85
2023/04/22 09:40:34;;;;;;;10.53;6.00;;;18.20;99.90;;;;;;5048964;28;20312;-82
2023/04/22 09:43:06;;;;;;;7.53;5.67;;;18.60;99.90;;;;;;5050094;28;20658;-83
2023/04/22 09:45:36;;;;;;;9.03;5.57;;;19.60;99.90;;;;;;5053013;28;20186;-81
2023/04/22 09:48:09;;;;;;;8.77;5.50;;;20.00;99.90;;;;;;5048955;28;20684;-81
2023/04/22 09:50:36;;;;;;;7.47;6.10;;;19.70;99.90;;;;;;5050961;28;20686;-83
2023/04/22 09:53:05;;;;;;;7.90;6.33;;;19.20;99.90;;;;;;5053585;28;20233;-85
2023/04/22 09:55:36;;;;;;;7.80;6.10;;;18.70;99.90;;;;;;5052299;27;20292;-82
2023/04/22 09:58:10;;;;;;;8.07;5.70;;;19.20;99.90;;;;;;5050508;28;20185;-82
2023/04/22 10:00:47;;;;;;;6.80;5.90;;;20.40;99.90;;;;;;5052303;28;20237;-82
2023/04/22 10:03:14;;;;;;;7.87;5.53;;;20.50;99.90;;;;;;5050406;28;21098;-85
2023/04/22 10:05:41;;;;;;;8.13;5.93;;;21.10;99.90;;;;;;5052947;28;20221;-85
2023/04/22 10:08:09;;;;;;;10.37;6.77;;;19.50;99.90;;;;;;5052771;28;20287;-82
2023/04/22 10:10:35;;;;;;;6.97;5.75;;;18.80;99.90;;;;;;5051412;27;20218;-83
2023/04/22 10:13:05;;;;;;;6.63;5.57;;;19.50;99.90;;;;;;5050079;27;20620;-85
2023/04/22 10:15:38;;;;;;;9.03;6.77;;;18.90;99.90;;;;;;5049398;28;20182;-82
2023/04/22 10:18:07;;;;;;;6.88;5.97;;;19.80;99.90;;;;;;5048884;28;20217;-83
2023/04/22 10:20:37;;;;;;;10.50;6.53;;;20.90;99.90;;;;;;5045799;28;20233;-85
2023/04/22 10:23:04;;;;;;;9.67;6.77;;;21.00;99.90;;;;;;5050055;28;21169;-84
2023/04/22 10:25:30;;;;;;;9.90;6.57;;;21.30;99.90;;;;;;5051871;28;20241;-82
2023/04/22 10:28:08;;;;;;;10.43;6.37;;;20.70;99.90;;;;;;5050866;28;21116;-81
2023/04/22 10:30:36;;;;;;;7.30;5.45;;;20.80;99.90;;;;;;5050449;28;20223;-84
2023/04/22 10:33:37;;;;;;;10.23;6.50;;;20.00;99.90;;;;;;5048161;28;20216;-83
2023/04/22 10:36:09;;;;;;;7.67;6.33;;;19.70;99.90;;;;;;5018495;28;20226;-86
2023/04/22 10:38:36;;;;;;;8.70;6.13;;;19.30;99.90;;;;;;5048204;27;20239;-84
2023/04/22 10:41:02;;;;;;;7.82;5.85;;;20.20;99.90;;;;;;5047698;28;20284;-84
2023/04/22 10:43:54;;;;;;;9.43;6.47;;;19.70;99.90;;;;;;5041331;28;20217;-84
2023/04/22 10:46:33;;;;;;;8.97;6.73;;;18.00;99.90;;;;;;5053453;28;20221;-82
2023/04/22 10:49:09;;;;;;;9.33;6.50;;;17.60;99.90;;;;;;5050087;27;20197;-83
2023/04/22 10:51:46;;;;;;;9.53;6.70;;;18.00;99.90;;;;;;5049539;28;20608;-82
2023/04/22 10:54:35;;;;;;;9.33;6.93;;;17.90;99.90;;;;;;5050564;28;20225;-82
2023/04/22 10:57:02;;;;;;;8.67;6.20;;;17.90;99.90;;;;;;5052765;28;20244;-83
2023/04/22 10:59:28;;;;;;;10.10;7.40;;;18.30;99.90;;;;;;5054392;27;20300;-82
2023/04/22 11:01:59;;;;;;;9.27;6.83;;;18.70;99.90;;;;;;5051962;28;21065;-85
2023/04/22 11:04:25;;;;;;;10.00;7.40;;;19.20;99.90;;;;;;5050903;28;20236;-84
2023/04/22 11:07:25;;;;;;;7.63;6.93;;;20.00;99.90;;;;;;5051881;28;20194;-82
2023/04/22 11:09:58;;;;;;;9.57;6.67;;;20.90;99.90;;;;;;5052192;28;20224;-82
2023/04/22 11:12:41;;;;;;;11.07;7.03;;;19.40;99.90;;;;;;5050357;28;20222;-84
2023/04/22 11:15:25;;;;;;;10.27;7.30;;;19.10;99.90;;;;;;5053905;28;20333;-82
2023/04/22 11:17:53;;;;;;;10.67;7.00;;;19.30;99.90;;;;;;5050245;27;20217;-83
2023/04/22 11:20:20;;;;;;;8.07;6.17;;;19.50;99.90;;;;;;5048772;28;20245;-86
2023/04/22 11:22:51;;;;;;;10.17;7.83;;;19.50;99.90;;;;;;5051175;28;20233;-83
2023/04/22 11:25:17;;;;;;;9.47;6.93;;;19.30;99.90;;;;;;5064144;28;20641;-84
2023/04/22 11:27:43;;;;;;;7.70;5.80;;;20.10;99.90;;;;;;5051137;28;20188;-82
2023/04/22 11:30:13;;;;;;;9.10;6.07;;;19.70;99.90;;;;;;5046681;28;20222;-82
2023/04/22 11:32:57;;;;;;;8.37;5.50;;;18.70;99.90;;;;;;5049531;28;20222;-82
2023/04/22 11:35:29;;;;;;;8.70;5.57;;;18.60;99.90;;;;;;5053800;28;20205;-82
2023/04/22 11:37:56;;;;;;;8.97;6.47;;;19.50;99.90;;;;;;5053702;27;20221;-82
2023/04/22 11:40:28;;;;;;;10.23;6.43;;;20.30;99.90;;;;;;5050586;28;20237;-83
2023/04/22 11:42:54;;;;;;;8.63;6.17;;;19.80;99.90;;;;;;5050302;28;20185;-82
2023/04/22 11:45:21;;;;;;;9.03;6.57;;;18.80;99.90;;;;;;5039945;28;20217;-86
2023/04/22 11:47:49;;;;;;;10.53;6.27;;;18.80;99.90;;;;;;5049478;28;20792;-83
2023/04/22 11:50:17;;;;;;;7.93;5.97;;;18.40;99.90;;;;;;5050643;28;20472;-83
2023/04/22 11:52:57;;;;;;;7.97;6.20;;;18.40;99.90;;;;;;5044141;28;20332;-82
2023/04/22 11:55:31;;;;;;;8.97;5.90;;;18.20;99.90;;;;;;5052126;27;20228;-82
2023/04/22 11:58:04;;;;;;;10.43;6.23;;;18.70;99.90;;;;;;5051147;28;20280;-82
2023/04/22 12:00:32;;;;;;;8.53;6.33;;;19.40;99.90;;;;;;5050528;28;20229;-82
2023/04/22 12:03:19;;;;;;;12.10;6.63;;;20.30;99.90;;;;;;5050234;28;20243;-82
2023/04/22 12:05:51;;;;;;;5.80;4.77;;;21.20;99.90;;;;;;5048789;28;20206;-82
2023/04/22 12:08:23;;;;;;;7.27;5.93;;;21.50;99.90;;;;;;5084229;28;20221;-83
2023/04/22 12:10:56;;;;;;;8.03;5.37;;;21.70;99.90;;;;;;5050399;28;20225;-83
2023/04/22 12:13:30;;;;;;;7.23;5.70;;;20.70;99.90;;;;;;5050424;27;20259;-84
2023/04/22 12:16:08;;;;;;;8.80;5.60;;;20.30;99.90;;;;;;5050905;28;20194;-83
2023/04/22 12:18:54;;;;;;;9.70;5.80;;;20.40;99.90;;;;;;5050253;28;20324;-82
2023/04/22 12:21:27;;;;;;;9.70;6.03;;;20.30;99.90;;;;;;5051164;28;20233;-82
2023/04/22 12:24:09;;;;;;;6.93;5.67;;;20.20;99.90;;;;;;5048949;27;20233;-84
2023/04/22 12:26:36;;;;;;;8.50;6.47;;;20.50;99.90;;;;;;5050104;28;20217;-84
2023/04/22 12:29:03;;;;;;;9.23;5.77;;;21.00;99.90;;;;;;5048166;28;20221;-83
2023/04/22 12:31:29;;;;;;;9.67;7.33;;;21.20;99.90;;;;;;5049611;28;20229;-82
2023/04/22 12:33:54;;;;;;;12.50;8.07;;;21.00;99.90;;;;;;5051328;28;20186;-85
2023/04/22 12:36:20;;;;;;;20.10;8.40;;;19.80;99.90;;;;;;5049686;27;20231;-82
2023/04/22 12:38:46;;;;;;;15.13;8.73;;;19.30;99.90;;;;;;5055901;27;20217;-84
2023/04/22 12:41:12;;;;;;;11.10;7.33;;;18.60;99.90;;;;;;5057570;27;20225;-82
2023/04/22 12:43:38;;;;;;;10.03;7.10;;;17.60;99.90;;;;;;5054349;28;20557;-83
2023/04/22 12:46:06;;;;;;;10.57;7.67;;;17.40;99.90;;;;;;5054340;27;20185;-82
2023/04/22 12:48:32;;;;;;;14.83;8.43;;;17.60;99.90;;;;;;5054662;28;20192;-84
2023/04/22 12:50:58;;;;;;;10.60;7.67;;;17.80;99.90;;;;;;5057499;28;20221;-84